Time;durP1;ratioP1;P1;durP2;ratioP2;P2;SDS_P1;SDS_P2;PMS_P1;PMS_P2;Temp;Humidity;BMP_temperature;BMP_pressure;BME280_temperature;BME280_humidity;BME280_pressure;Samples;Min_cycle;Max_cycle;Signal;HPM_P1;HPM_P2
2024/03/25 00:01:32;;;;;;;6.57;2.30;;;5.50;99.90;;;;;;4827290;29;20212;-80
2024/03/25 00:03:57;;;;;;;5.80;2.00;;;5.50;99.90;;;;;;4827269;29;20189;-79
2024/03/25 00:06:23;;;;;;;7.73;2.20;;;5.50;99.90;;;;;;4843892;29;20527;-80
2024/03/25 00:08:49;;;;;;;6.87;1.93;;;5.50;99.90;;;;;;4827517;29;20200;-80
2024/03/25 00:11:15;;;;;;;6.57;2.37;;;5.50;99.90;;;;;;4843709;29;20622;-85
2024/03/25 00:13:40;;;;;;;5.03;2.03;;;5.50;99.90;;;;;;4827662;29;20629;-78
2024/03/25 00:16:07;;;;;;;6.97;1.70;;;5.50;99.90;;;;;;4843393;29;20233;-80
2024/03/25 00:18:33;;;;;;;4.50;1.60;;;5.40;99.90;;;;;;4828572;29;20687;-79
2024/03/25 00:20:58;;;;;;;6.80;2.17;;;5.40;99.90;;;;;;4847243;29;20250;-81
2024/03/25 00:23:24;;;;;;;4.40;1.40;;;5.40;99.90;;;;;;4847237;29;20572;-80
2024/03/25 00:25:50;;;;;;;6.60;1.50;;;5.30;99.90;;;;;;4847129;29;20514;-81
2024/03/25 00:28:16;;;;;;;3.57;1.30;;;5.30;99.90;;;;;;4847431;29;20271;-87
2024/03/25 00:30:42;;;;;;;6.03;1.20;;;5.20;99.90;;;;;;4847104;29;20208;-80
2024/03/25 00:33:08;;;;;;;2.33;1.10;;;5.20;99.90;;;;;;4846929;29;20180;-80
2024/03/25 00:35:34;;;;;;;3.13;1.20;;;5.20;99.90;;;;;;4847540;29;20195;-80
2024/03/25 00:38:00;;;;;;;3.17;1.57;;;5.10;99.90;;;;;;4846975;29;20581;-81
2024/03/25 00:40:26;;;;;;;2.17;1.20;;;5.20;99.90;;;;;;4830452;29;20215;-80
2024/03/25 00:42:52;;;;;;;3.80;1.37;;;5.10;99.90;;;;;;4846873;29;20252;-81
2024/03/25 00:45:18;;;;;;;6.77;2.53;;;5.10;99.90;;;;;;4846710;29;20529;-80
2024/03/25 00:47:43;;;;;;;4.77;1.73;;;5.20;99.90;;;;;;4846458;29;20276;-79
2024/03/25 00:50:09;;;;;;;4.83;1.97;;;5.20;99.90;;;;;;4846756;29;20196;-80
2024/03/25 00:52:36;;;;;;;8.27;1.67;;;5.20;99.90;;;;;;4846660;29;20177;-80
2024/03/25 00:55:03;;;;;;;6.90;1.67;;;5.20;99.90;;;;;;4846976;29;20532;-80
2024/03/25 00:57:29;;;;;;;6.20;1.40;;;5.20;99.90;;;;;;4846612;29;20189;-80
2024/03/25 00:59:56;;;;;;;3.83;1.53;;;5.20;99.90;;;;;;4846651;29;20213;-85
2024/03/25 01:02:22;;;;;;;6.07;1.60;;;5.30;99.90;;;;;;4846563;29;20166;-80
2024/03/25 01:04:48;;;;;;;2.93;1.30;;;5.30;99.90;;;;;;4830097;29;20196;-81
2024/03/25 01:07:18;;;;;;;5.50;1.43;;;5.30;99.90;;;;;;4846363;29;20654;-80
2024/03/25 01:09:44;;;;;;;4.43;1.50;;;5.30;99.90;;;;;;4846649;29;20609;-80
2024/03/25 01:12:10;;;;;;;5.90;1.60;;;5.20;99.90;;;;;;4846302;29;20181;-80
2024/03/25 01:14:37;;;;;;;4.33;1.30;;;5.30;99.90;;;;;;4846299;29;20219;-87
2024/03/25 01:17:03;;;;;;;2.73;1.47;;;5.30;99.90;;;;;;4845829;29;20262;-80
2024/03/25 01:19:29;;;;;;;9.07;1.70;;;5.30;99.90;;;;;;4846318;29;20316;-79
2024/03/25 01:21:55;;;;;;;5.30;1.40;;;5.30;99.90;;;;;;4846213;29;20665;-79
2024/03/25 01:24:21;;;;;;;7.83;2.23;;;5.30;99.90;;;;;;4846031;29;20182;-81
2024/03/25 01:26:47;;;;;;;3.77;1.70;;;5.30;99.90;;;;;;4845912;29;20180;-80
2024/03/25 01:29:13;;;;;;;3.97;1.70;;;5.20;99.90;;;;;;4845310;29;20177;-83
2024/03/25 01:31:42;;;;;;;5.70;1.80;;;5.20;99.90;;;;;;4845567;29;20230;-79
2024/03/25 01:34:08;;;;;;;14.10;2.23;;;5.20;99.90;;;;;;4845875;29;20229;-81
2024/03/25 01:36:35;;;;;;;3.87;1.90;;;5.30;99.90;;;;;;4845875;29;20185;-80
2024/03/25 01:39:00;;;;;;;3.10;1.90;;;5.20;99.90;;;;;;4829157;29;20616;-80
2024/03/25 01:41:26;;;;;;;5.37;2.27;;;5.20;99.90;;;;;;4845746;29;20185;-80
2024/03/25 01:43:52;;;;;;;8.43;2.33;;;5.30;99.90;;;;;;5221353;24;20245;-91
2024/03/25 01:46:21;;;;;;;6.40;2.13;;;5.20;99.90;;;;;;4846641;29;20178;-90
2024/03/25 01:48:48;;;;;;;9.30;2.13;;;5.20;99.90;;;;;;4830354;29;20192;-90
2024/03/25 01:51:17;;;;;;;8.90;2.90;;;5.20;99.90;;;;;;4830794;29;20189;-91
2024/03/25 01:53:44;;;;;;;6.57;2.23;;;5.20;99.90;;;;;;4845812;29;20181;-92
2024/03/25 01:56:13;;;;;;;8.73;2.40;;;5.10;99.90;;;;;;4830363;29;20231;-90
2024/03/25 01:58:40;;;;;;;5.47;2.07;;;5.20;99.90;;;;;;4846629;29;20234;-93
2024/03/25 02:01:08;;;;;;;8.97;2.30;;;5.20;99.90;;;;;;4830108;29;20272;-89
2024/03/25 02:03:34;;;;;;;10.43;2.60;;;5.20;99.90;;;;;;4830220;29;20246;-90
2024/03/25 02:06:08;;;;;;;5.33;2.30;;;5.20;99.90;;;;;;4829936;29;20193;-90
2024/03/25 02:08:34;;;;;;;16.83;2.50;;;5.10;99.90;;;;;;4830070;29;20174;-89
2024/03/25 02:11:01;;;;;;;8.90;2.27;;;5.20;99.90;;;;;;4830201;29;20196;-91
2024/03/25 02:13:27;;;;;;;6.03;2.50;;;5.20;99.90;;;;;;4830200;29;20190;-87
2024/03/25 02:15:56;;;;;;;7.40;2.33;;;5.20;99.90;;;;;;4829860;29;20186;-87
2024/03/25 02:18:22;;;;;;;5.67;2.83;;;5.20;99.90;;;;;;4845034;29;20178;-88
2024/03/25 02:20:47;;;;;;;4.30;2.47;;;5.20;99.90;;;;;;4845199;29;20197;-88
2024/03/25 02:23:16;;;;;;;6.70;2.80;;;5.20;99.90;;;;;;4829809;29;20185;-90
2024/03/25 02:25:43;;;;;;;4.50;1.97;;;5.20;99.90;;;;;;4829925;29;20190;-90
2024/03/25 02:28:09;;;;;;;12.00;2.70;;;5.20;99.90;;;;;;4829893;29;20237;-90
2024/03/25 02:30:36;;;;;;;7.47;2.37;;;5.30;99.90;;;;;;4829645;29;20536;-91
2024/03/25 02:33:02;;;;;;;4.13;2.07;;;5.30;99.90;;;;;;4829913;29;20200;-89
2024/03/25 02:35:41;;;;;;;4.73;1.97;;;5.30;99.90;;;;;;4829730;29;20190;-90
2024/03/25 02:38:08;;;;;;;5.43;2.43;;;5.30;99.90;;;;;;4840068;29;20271;-90
2024/03/25 02:40:35;;;;;;;8.70;2.50;;;5.20;99.90;;;;;;4847484;29;20307;-88
2024/03/25 02:43:02;;;;;;;10.93;2.50;;;5.20;99.90;;;;;;4847949;29;20185;-90
2024/03/25 02:45:28;;;;;;;5.37;2.20;;;5.20;99.90;;;;;;4847348;29;20266;-89
2024/03/25 02:47:55;;;;;;;7.77;2.50;;;5.30;99.90;;;;;;4847947;29;20180;-91
2024/03/25 02:50:20;;;;;;;7.37;2.30;;;5.20;99.90;;;;;;4847749;29;20620;-94
2024/03/25 02:52:46;;;;;;;6.63;2.27;;;5.20;99.90;;;;;;4847569;29;20184;-89
2024/03/25 02:55:12;;;;;;;9.97;2.50;;;5.30;99.90;;;;;;4847514;29;20558;-89
2024/03/25 02:57:38;;;;;;;6.30;2.57;;;5.20;99.90;;;;;;4847474;29;20184;-90
2024/03/25 03:00:04;;;;;;;7.47;2.47;;;5.20;99.90;;;;;;4847274;29;20216;-90
2024/03/25 03:02:30;;;;;;;7.43;2.00;;;5.20;99.90;;;;;;4847623;29;20177;-89
2024/03/25 03:04:56;;;;;;;7.20;2.30;;;5.20;99.90;;;;;;4847596;29;20184;-89
2024/03/25 03:07:24;;;;;;;5.90;2.13;;;5.20;99.90;;;;;;4847459;29;20179;-91
2024/03/25 03:09:50;;;;;;;4.50;2.03;;;5.30;99.90;;;;;;4847324;29;20200;-89
2024/03/25 03:12:16;;;;;;;5.73;2.20;;;5.30;99.90;;;;;;4847399;29;20212;-90
2024/03/25 03:14:42;;;;;;;6.20;2.10;;;5.30;99.90;;;;;;4847097;29;20276;-89
2024/03/25 03:17:09;;;;;;;6.80;2.43;;;5.20;99.90;;;;;;4863851;29;20244;-89
2024/03/25 03:19:34;;;;;;;4.80;1.90;;;5.20;99.90;;;;;;4847050;29;20668;-89
2024/03/25 03:22:00;;;;;;;5.47;2.10;;;5.20;99.90;;;;;;4847235;29;20188;-89
2024/03/25 03:24:26;;;;;;;4.97;2.00;;;5.10;99.90;;;;;;4847135;29;20184;-90
2024/03/25 03:26:52;;;;;;;5.30;2.07;;;5.10;99.90;;;;;;4847101;29;20180;-89
2024/03/25 03:29:18;;;;;;;6.97;2.23;;;5.00;99.90;;;;;;4863709;29;20176;-90
2024/03/25 03:31:44;;;;;;;6.23;1.90;;;5.10;99.90;;;;;;4846980;29;20181;-88
2024/03/25 03:34:09;;;;;;;6.27;2.03;;;5.10;99.90;;;;;;4846986;29;20279;-90
2024/03/25 03:36:36;;;;;;;4.50;2.17;;;5.10;99.90;;;;;;4846922;29;20180;-88
2024/03/25 03:39:03;;;;;;;10.13;2.57;;;5.10;99.90;;;;;;4863462;29;20211;-90
2024/03/25 03:41:29;;;;;;;8.23;2.43;;;5.10;99.90;;;;;;4846873;29;20249;-88
2024/03/25 03:43:55;;;;;;;6.33;2.30;;;5.10;99.90;;;;;;4863187;29;20261;-90
2024/03/25 03:46:27;;;;;;;3.23;2.17;;;5.00;99.90;;;;;;4863274;29;20172;-90
2024/03/25 03:48:53;;;;;;;4.80;2.10;;;5.10;99.90;;;;;;4846877;29;20176;-90
2024/03/25 03:51:19;;;;;;;3.87;2.77;;;5.10;99.90;;;;;;4846750;29;20181;-89
2024/03/25 03:53:45;;;;;;;6.10;2.30;;;5.10;99.90;;;;;;4846141;29;20271;-90
2024/03/25 03:56:16;;;;;;;6.33;2.27;;;5.10;99.90;;;;;;4846817;29;20197;-90
2024/03/25 03:58:42;;;;;;;7.40;2.67;;;5.10;99.90;;;;;;4846809;29;20288;-90
2024/03/25 04:01:18;;;;;;;5.57;2.43;;;5.20;99.90;;;;;;4846810;29;20192;-89
2024/03/25 04:03:44;;;;;;;6.47;2.67;;;5.20;99.90;;;;;;4863266;29;20241;-89
2024/03/25 04:06:13;;;;;;;6.53;2.93;;;5.20;99.90;;;;;;4846721;29;20526;-89
2024/03/25 04:08:40;;;;;;;5.70;2.40;;;5.20;99.90;;;;;;4846662;29;20647;-89
2024/03/25 04:11:07;;;;;;;7.67;2.60;;;5.10;99.90;;;;;;4846715;29;20189;-89
2024/03/25 04:13:34;;;;;;;4.63;2.50;;;5.20;99.90;;;;;;4846390;29;20180;-91
2024/03/25 04:16:04;;;;;;;8.20;3.17;;;5.20;99.90;;;;;;4843490;29;20632;-89
2024/03/25 04:18:32;;;;;;;8.63;2.80;;;5.20;99.90;;;;;;4845936;29;20176;-89
2024/03/25 04:20:58;;;;;;;8.57;2.43;;;5.20;99.90;;;;;;4846608;29;20193;-90
2024/03/25 04:23:24;;;;;;;6.83;3.17;;;5.20;99.90;;;;;;4846435;29;20180;-90
2024/03/25 04:25:51;;;;;;;9.47;3.03;;;5.20;99.90;;;;;;4846411;29;20326;-90
2024/03/25 04:28:17;;;;;;;10.30;3.20;;;5.20;99.90;;;;;;4846478;29;20516;-91
2024/03/25 04:30:43;;;;;;;5.73;2.70;;;5.20;99.90;;;;;;4862724;29;20177;-89
2024/03/25 04:33:08;;;;;;;6.07;2.90;;;5.20;99.90;;;;;;4846407;29;20188;-90
2024/03/25 04:35:34;;;;;;;6.87;2.90;;;5.20;99.90;;;;;;4846427;29;20177;-90
2024/03/25 04:38:03;;;;;;;7.33;2.80;;;5.20;99.90;;;;;;4846337;29;20189;-91
2024/03/25 04:40:30;;;;;;;8.17;2.83;;;5.20;99.90;;;;;;4861536;29;20209;-89
2024/03/25 04:42:56;;;;;;;7.33;3.07;;;5.20;99.90;;;;;;4861724;29;20184;-90
2024/03/25 04:45:22;;;;;;;4.63;3.00;;;5.10;99.90;;;;;;4845713;29;20242;-89
2024/03/25 04:47:48;;;;;;;5.57;2.60;;;5.20;99.90;;;;;;4845797;29;20193;-91
2024/03/25 04:50:17;;;;;;;5.80;2.83;;;5.20;99.90;;;;;;4845999;29;20180;-92
2024/03/25 04:52:43;;;;;;;8.30;2.83;;;5.20;99.90;;;;;;4846313;29;20188;-92
2024/03/25 04:55:08;;;;;;;11.93;2.90;;;5.20;99.90;;;;;;4846294;29;20241;-92
2024/03/25 04:57:38;;;;;;;8.90;2.63;;;5.20;99.90;;;;;;4846180;29;20628;-91
2024/03/25 05:00:05;;;;;;;7.80;2.43;;;5.20;99.90;;;;;;4846036;29;20243;-91
2024/03/25 05:02:31;;;;;;;5.73;2.70;;;5.20;99.90;;;;;;4846894;29;20263;-93
2024/03/25 05:04:56;;;;;;;6.93;2.30;;;5.20;99.90;;;;;;4848161;29;20222;-92
2024/03/25 05:07:32;;;;;;;7.03;2.27;;;5.20;99.90;;;;;;4849652;29;20181;-91
2024/03/25 05:09:58;;;;;;;7.00;2.53;;;5.20;99.90;;;;;;4849409;29;20181;-92
2024/03/25 05:12:27;;;;;;;5.43;2.53;;;5.20;99.90;;;;;;4849474;29;20181;-91
2024/03/25 05:14:52;;;;;;;8.43;2.23;;;5.10;99.90;;;;;;4849250;29;20236;-92
2024/03/25 05:17:40;;;;;;;9.97;2.97;;;5.10;99.90;;;;;;4849282;29;20189;-94
2024/03/25 05:20:06;;;;;;;6.50;2.43;;;5.10;99.90;;;;;;4849300;29;20213;-90
2024/03/25 05:22:32;;;;;;;12.07;2.80;;;5.10;99.90;;;;;;4849394;29;20201;-91
2024/03/25 05:24:58;;;;;;;3.83;2.00;;;5.10;99.90;;;;;;4849528;29;20265;-92
2024/03/25 05:27:24;;;;;;;7.60;2.20;;;5.00;99.90;;;;;;4849309;29;20228;-90
2024/03/25 05:29:50;;;;;;;7.30;2.77;;;5.10;99.90;;;;;;4848988;29;20622;-88
2024/03/25 05:32:21;;;;;;;6.93;2.90;;;5.10;99.90;;;;;;4849139;29;20260;-91
2024/03/25 05:34:48;;;;;;;5.30;2.00;;;5.00;99.90;;;;;;4849099;29;20248;-92
2024/03/25 05:37:14;;;;;;;8.47;2.57;;;5.00;99.90;;;;;;4865357;29;20180;-91
2024/03/25 05:39:40;;;;;;;12.47;2.40;;;4.90;99.90;;;;;;4849004;29;20208;-90
2024/03/25 05:42:06;;;;;;;5.00;2.00;;;5.00;99.90;;;;;;4848826;29;20185;-91
2024/03/25 05:44:32;;;;;;;4.43;2.07;;;4.90;99.90;;;;;;4848836;29;20237;-92
2024/03/25 05:46:59;;;;;;;11.07;2.93;;;5.00;99.90;;;;;;4848763;29;20198;-90
2024/03/25 05:49:24;;;;;;;6.20;2.50;;;4.90;99.90;;;;;;4849128;29;20232;-91
2024/03/25 05:51:51;;;;;;;7.97;2.60;;;5.00;99.90;;;;;;4865272;29;20211;-91
2024/03/25 05:54:17;;;;;;;9.20;2.53;;;5.10;99.90;;;;;;4848681;29;20204;-89
2024/03/25 05:56:43;;;;;;;8.00;2.47;;;5.10;99.90;;;;;;4865115;29;20212;-90
2024/03/25 05:59:08;;;;;;;8.80;2.33;;;5.10;99.90;;;;;;4848959;29;20213;-92
2024/03/25 06:01:37;;;;;;;8.17;2.40;;;5.00;99.90;;;;;;4848450;29;20180;-92
2024/03/25 06:04:03;;;;;;;6.57;2.07;;;5.00;99.90;;;;;;4848553;29;20188;-92
2024/03/25 06:06:29;;;;;;;9.37;2.30;;;5.10;99.90;;;;;;4848483;29;20181;-93
2024/03/25 06:08:59;;;;;;;5.43;2.47;;;5.10;99.90;;;;;;4848522;29;20192;-93
2024/03/25 06:11:25;;;;;;;6.47;2.33;;;5.10;99.90;;;;;;4848589;29;20177;-93
2024/03/25 06:13:50;;;;;;;8.10;2.03;;;5.10;99.90;;;;;;4848478;29;20187;-92
2024/03/25 06:16:16;;;;;;;5.57;2.30;;;5.20;99.90;;;;;;4847661;29;20200;-92
2024/03/25 06:18:44;;;;;;;7.70;2.10;;;5.20;99.90;;;;;;4848370;29;20276;-91
2024/03/25 06:21:10;;;;;;;12.33;3.07;;;5.20;99.90;;;;;;4848434;29;20192;-93
2024/03/25 06:23:36;;;;;;;6.73;3.00;;;5.30;99.90;;;;;;4864811;29;20185;-93
2024/03/25 06:26:01;;;;;;;12.40;3.27;;;5.40;99.90;;;;;;4864587;29;20212;-90
2024/03/25 06:28:27;;;;;;;8.20;2.70;;;5.30;99.90;;;;;;4848167;29;20531;-89
2024/03/25 06:36:21;;;;;;;11.30;2.67;;;5.40;99.90;;;;;;4864992;29;20229;-92
2024/03/25 06:38:47;;;;;;;12.53;2.67;;;5.40;99.90;;;;;;4847920;29;20221;-92
2024/03/25 06:41:13;;;;;;;6.83;2.50;;;5.40;99.90;;;;;;4847813;29;20253;-91
2024/03/25 06:43:39;;;;;;;8.80;3.17;;;5.40;99.90;;;;;;4847580;29;20181;-89
2024/03/25 06:46:06;;;;;;;9.50;2.97;;;5.50;99.90;;;;;;4847643;29;20254;-90
2024/03/25 06:48:41;;;;;;;11.57;2.70;;;5.50;99.90;;;;;;4847884;29;20180;-90
2024/03/25 06:51:07;;;;;;;8.23;2.63;;;5.60;99.90;;;;;;4847822;29;20181;-89
2024/03/25 06:53:33;;;;;;;11.30;3.00;;;5.60;99.90;;;;;;4847597;29;20188;-91
2024/03/25 06:55:59;;;;;;;13.50;2.70;;;5.70;99.90;;;;;;4847658;29;20636;-91
2024/03/25 06:58:28;;;;;;;9.93;2.60;;;5.80;99.90;;;;;;4847454;29;20180;-89
2024/03/25 07:00:55;;;;;;;9.50;2.23;;;5.80;99.90;;;;;;4847407;29;20192;-89
2024/03/25 07:03:22;;;;;;;9.17;2.40;;;5.90;99.90;;;;;;4847495;29;20613;-91
2024/03/25 07:05:49;;;;;;;6.10;2.30;;;5.90;99.90;;;;;;4862827;29;20188;-92
2024/03/25 07:08:15;;;;;;;7.53;2.80;;;6.00;99.90;;;;;;4847641;29;20188;-91
2024/03/25 07:10:44;;;;;;;9.90;2.30;;;5.90;99.90;;;;;;4847378;29;20196;-91
2024/03/25 07:13:11;;;;;;;9.47;2.13;;;6.00;99.90;;;;;;4847231;29;20564;-92
2024/03/25 07:15:37;;;;;;;8.90;2.63;;;6.00;99.90;;;;;;4863692;29;20183;-91
2024/03/25 07:18:03;;;;;;;9.60;2.73;;;6.10;99.90;;;;;;4847277;29;20613;-92
2024/03/25 07:20:29;;;;;;;7.77;2.73;;;6.00;99.90;;;;;;4848182;29;20230;-92
2024/03/25 07:22:56;;;;;;;10.07;2.90;;;6.00;99.90;;;;;;4847240;29;20284;-92
2024/03/25 07:25:25;;;;;;;7.63;2.53;;;6.00;99.90;;;;;;4847457;29;20184;-92
2024/03/25 07:28:00;;;;;;;6.10;2.67;;;6.00;99.90;;;;;;4846584;29;20194;-91
2024/03/25 07:30:28;;;;;;;14.67;3.17;;;5.90;99.90;;;;;;4846975;29;20211;-91
2024/03/25 07:32:58;;;;;;;8.80;2.50;;;5.80;99.90;;;;;;4846988;29;20184;-92
2024/03/25 07:35:24;;;;;;;10.37;3.33;;;5.90;99.90;;;;;;4845823;29;20177;-94
2024/03/25 07:37:51;;;;;;;7.87;2.33;;;5.80;99.90;;;;;;4837501;29;20210;-91
2024/03/25 07:40:21;;;;;;;15.43;4.23;;;5.80;99.90;;;;;;4827640;29;20217;-90
2024/03/25 07:42:48;;;;;;;10.13;2.53;;;5.80;99.90;;;;;;4830083;29;20185;-93
2024/03/25 07:45:14;;;;;;;11.23;2.97;;;5.80;99.90;;;;;;4826199;29;20331;-92
2024/03/25 07:47:40;;;;;;;20.43;3.17;;;5.80;99.90;;;;;;4826286;29;20241;-92
2024/03/25 07:50:07;;;;;;;13.57;3.50;;;5.80;99.90;;;;;;4826156;29;20193;-92
2024/03/25 07:52:33;;;;;;;14.53;3.43;;;5.90;99.90;;;;;;4846468;29;20522;-93
2024/03/25 07:54:59;;;;;;;9.43;3.10;;;5.90;99.90;;;;;;4845444;29;20579;-92
2024/03/25 07:57:25;;;;;;;10.17;3.00;;;5.90;99.90;;;;;;4823788;29;20216;-92
2024/03/25 07:59:52;;;;;;;11.23;2.70;;;6.00;99.90;;;;;;4828478;29;20216;-91
2024/03/25 08:02:17;;;;;;;12.17;3.03;;;6.00;99.90;;;;;;4831647;29;20197;-92
2024/03/25 08:04:43;;;;;;;13.57;3.07;;;5.90;99.90;;;;;;4842895;29;20637;-93
2024/03/25 08:07:09;;;;;;;10.63;2.43;;;5.90;99.90;;;;;;4840294;29;20185;-92
2024/03/25 08:09:35;;;;;;;13.53;3.13;;;6.00;99.90;;;;;;4846196;29;20181;-91
2024/03/25 08:12:00;;;;;;;13.27;2.93;;;6.00;99.90;;;;;;4828850;29;20218;-95
2024/03/25 08:14:26;;;;;;;12.30;2.87;;;6.10;99.90;;;;;;4828547;29;20185;-92
2024/03/25 08:16:52;;;;;;;11.67;2.90;;;6.10;99.90;;;;;;4831728;29;20193;-92
2024/03/25 08:19:25;;;;;;;11.07;2.77;;;6.20;99.90;;;;;;4828742;29;20221;-94
2024/03/25 08:21:50;;;;;;;13.13;2.33;;;6.30;99.90;;;;;;4826853;29;20256;-93
2024/03/25 08:24:16;;;;;;;12.23;2.77;;;6.30;99.90;;;;;;4828247;29;20279;-91
2024/03/25 08:26:42;;;;;;;16.60;3.10;;;6.30;99.90;;;;;;4826377;29;20221;-93
2024/03/25 08:29:09;;;;;;;16.27;2.83;;;6.30;99.90;;;;;;4843040;29;20499;-92
2024/03/25 08:31:35;;;;;;;8.40;2.53;;;6.40;99.90;;;;;;4849532;29;20280;-93
2024/03/25 08:34:00;;;;;;;13.73;2.73;;;6.50;99.90;;;;;;4826486;29;20633;-92
2024/03/25 08:36:26;;;;;;;18.90;2.87;;;6.50;99.90;;;;;;4830662;29;20189;-94
2024/03/25 08:38:52;;;;;;;12.17;3.40;;;6.50;99.90;;;;;;4828022;29;20296;-93
2024/03/25 08:41:18;;;;;;;14.73;2.83;;;6.60;99.90;;;;;;4830734;29;20201;-94
2024/03/25 08:43:44;;;;;;;10.87;2.50;;;6.60;99.90;;;;;;4831268;29;20245;-93
2024/03/25 08:46:09;;;;;;;11.27;2.80;;;6.80;99.90;;;;;;4836114;29;20189;-92
2024/03/25 08:48:35;;;;;;;14.77;2.70;;;6.70;99.90;;;;;;4837069;29;20180;-91
2024/03/25 08:51:03;;;;;;;11.83;2.50;;;6.80;99.90;;;;;;4841713;29;20608;-94
2024/03/25 08:53:29;;;;;;;14.60;3.33;;;6.90;99.90;;;;;;4832714;29;20189;-92
2024/03/25 08:55:55;;;;;;;18.47;2.97;;;6.90;99.90;;;;;;4834625;29;20526;-95
2024/03/25 08:58:21;;;;;;;11.43;2.80;;;7.00;99.90;;;;;;4838630;29;20181;-93
2024/03/25 09:00:48;;;;;;;9.50;2.53;;;7.10;99.90;;;;;;4836978;29;20220;-94
2024/03/25 09:03:14;;;;;;;12.70;2.87;;;7.00;99.90;;;;;;4838115;29;20275;-94
2024/03/25 09:05:40;;;;;;;10.63;2.70;;;7.10;99.90;;;;;;4851555;29;20291;-94
2024/03/25 09:08:06;;;;;;;14.47;2.47;;;7.20;99.90;;;;;;4832246;29;20840;-93
2024/03/25 09:13:18;;;;;;;8.57;2.03;;;7.30;99.90;;;;;;4846401;29;20192;-94
2024/03/25 09:15:44;;;;;;;6.73;2.07;;;7.40;99.90;;;;;;4830105;29;20196;-94
2024/03/25 09:18:10;;;;;;;10.07;2.57;;;7.50;99.90;;;;;;4829984;29;20200;-93
2024/03/25 09:20:44;;;;;;;10.93;2.30;;;7.60;99.90;;;;;;4843885;29;20648;-92
2024/03/25 09:23:10;;;;;;;12.70;2.13;;;7.60;99.90;;;;;;4828722;29;20595;-93
2024/03/25 09:25:35;;;;;;;8.67;2.07;;;7.60;99.90;;;;;;4828195;29;20204;-95
2024/03/25 09:28:02;;;;;;;13.33;2.50;;;7.70;99.90;;;;;;4828142;29;20249;-93
2024/03/25 09:30:28;;;;;;;12.00;2.30;;;7.70;99.90;;;;;;4826795;29;20230;-93
2024/03/25 09:32:54;;;;;;;10.50;2.70;;;7.80;99.90;;;;;;4828809;29;20205;-92
2024/03/25 09:35:20;;;;;;;11.77;1.80;;;7.90;99.90;;;;;;4829979;29;20283;-92
2024/03/25 09:37:46;;;;;;;9.03;2.10;;;7.80;99.90;;;;;;4830344;29;20201;-92
2024/03/25 09:40:12;;;;;;;8.90;2.23;;;7.50;99.90;;;;;;4831337;29;20228;-91
2024/03/25 09:42:48;;;;;;;12.10;2.50;;;7.30;99.90;;;;;;4836298;29;20660;-92
2024/03/25 09:45:16;;;;;;;8.17;2.40;;;7.40;99.90;;;;;;4826435;29;20251;-91
2024/03/25 09:47:47;;;;;;;13.63;2.57;;;7.40;99.90;;;;;;4832903;29;20197;-91
2024/03/25 09:50:24;;;;;;;10.70;2.70;;;7.50;99.90;;;;;;4834383;29;20288;-93
2024/03/25 09:52:52;;;;;;;12.63;2.90;;;7.70;99.90;;;;;;4842143;29;20189;-93
2024/03/25 09:55:18;;;;;;;10.00;2.63;;;7.80;99.90;;;;;;4830341;29;20714;-94
2024/03/25 09:57:44;;;;;;;15.37;2.67;;;8.00;99.90;;;;;;4822742;29;20194;-95
2024/03/25 10:00:13;;;;;;;11.00;2.90;;;8.20;99.90;;;;;;4832904;29;20321;-94
2024/03/25 10:02:41;;;;;;;13.47;3.27;;;8.30;99.90;;;;;;4829936;29;20253;-94
2024/03/25 10:05:08;;;;;;;10.23;2.10;;;8.40;99.90;;;;;;4835582;29;20192;-95
2024/03/25 10:07:35;;;;;;;9.53;2.17;;;8.50;99.90;;;;;;4828944;29;20189;-94
2024/03/25 10:10:08;;;;;;;13.03;2.30;;;8.50;99.90;;;;;;4832698;29;20265;-96
2024/03/25 10:12:39;;;;;;;13.87;2.20;;;8.50;99.90;;;;;;4849113;29;20192;-95
2024/03/25 10:15:05;;;;;;;12.23;2.90;;;8.40;99.90;;;;;;4847386;29;20212;-95
2024/03/25 10:17:31;;;;;;;8.80;2.27;;;8.30;99.90;;;;;;4838709;29;20213;-94
2024/03/25 10:19:57;;;;;;;10.47;2.17;;;8.30;99.90;;;;;;4834756;29;20217;-93
2024/03/25 10:22:29;;;;;;;5.57;1.77;;;8.30;99.90;;;;;;4829478;29;20248;-93
2024/03/25 10:24:55;;;;;;;7.07;1.50;;;8.30;99.90;;;;;;4830213;29;20216;-92
2024/03/25 10:27:23;;;;;;;8.27;2.13;;;8.30;99.90;;;;;;4829415;29;20625;-94
2024/03/25 10:29:52;;;;;;;8.27;1.90;;;8.20;99.90;;;;;;4828210;29;20208;-95
2024/03/25 10:32:29;;;;;;;9.13;1.97;;;8.20;99.90;;;;;;4831838;29;20204;-94
2024/03/25 10:34:55;;;;;;;9.63;1.93;;;8.20;99.90;;;;;;4829358;29;20224;-94
2024/03/25 10:37:24;;;;;;;3.33;1.30;;;8.30;99.90;;;;;;4831751;29;20264;-96
2024/03/25 10:39:54;;;;;;;7.20;1.83;;;8.40;99.90;;;;;;4829072;29;20269;-93
2024/03/25 10:42:30;;;;;;;6.73;1.43;;;8.30;99.90;;;;;;4830621;29;20196;-92
2024/03/25 10:44:56;;;;;;;5.80;1.67;;;8.40;99.90;;;;;;4830719;29;20271;-95
2024/03/25 10:47:27;;;;;;;6.13;1.33;;;8.30;99.90;;;;;;4826386;29;20763;-94
2024/03/25 10:49:58;;;;;;;5.70;1.47;;;8.20;99.90;;;;;;4828895;29;20205;-92
2024/03/25 10:52:29;;;;;;;4.77;1.60;;;8.20;99.90;;;;;;4832507;29;20261;-93
2024/03/25 10:54:55;;;;;;;10.10;1.80;;;8.10;99.90;;;;;;4849962;29;20197;-93
2024/03/25 10:57:22;;;;;;;6.53;1.40;;;8.00;99.90;;;;;;4828479;29;20189;-92
2024/03/25 10:59:49;;;;;;;5.70;1.67;;;8.00;99.90;;;;;;4845809;29;20221;-93
2024/03/25 11:02:24;;;;;;;7.70;1.70;;;8.10;99.90;;;;;;4848519;29;20614;-94
2024/03/25 11:04:51;;;;;;;6.87;1.77;;;8.10;99.90;;;;;;4843993;29;20533;-93
2024/03/25 11:07:17;;;;;;;11.30;2.80;;;8.00;99.90;;;;;;4844729;29;20192;-92
2024/03/25 11:09:43;;;;;;;7.60;2.00;;;8.00;99.90;;;;;;4840390;29;20177;-93
2024/03/25 11:12:13;;;;;;;7.93;1.97;;;8.00;99.90;;;;;;4842406;29;20576;-92
2024/03/25 11:14:39;;;;;;;10.50;2.23;;;7.90;99.90;;;;;;4844575;29;20184;-93
2024/03/25 11:17:18;;;;;;;9.93;2.00;;;8.00;99.90;;;;;;4829723;29;20186;-93
2024/03/25 11:19:44;;;;;;;8.60;1.60;;;8.10;99.90;;;;;;4845839;29;20219;-92
2024/03/25 11:22:24;;;;;;;9.23;1.90;;;8.30;99.90;;;;;;4829988;29;20592;-92
2024/03/25 11:24:52;;;;;;;5.67;1.30;;;8.50;99.90;;;;;;4846987;29;20194;-95
2024/03/25 11:27:27;;;;;;;5.50;1.73;;;8.60;99.90;;;;;;4844936;29;20181;-93
2024/03/25 11:29:52;;;;;;;5.70;1.33;;;8.70;99.90;;;;;;4830236;29;20176;-93
2024/03/25 11:32:27;;;;;;;7.60;1.70;;;8.70;99.90;;;;;;4845715;29;20193;-94
2024/03/25 11:34:53;;;;;;;7.40;1.90;;;8.80;99.90;;;;;;4829369;29;20605;-94
2024/03/25 11:37:19;;;;;;;7.77;1.60;;;8.80;99.90;;;;;;4844258;29;20276;-92
2024/03/25 11:39:45;;;;;;;5.33;1.37;;;9.10;99.90;;;;;;4847643;29;20213;-93
2024/03/25 11:42:13;;;;;;;6.50;1.77;;;9.40;99.90;;;;;;4847148;29;20628;-94
2024/03/25 11:44:41;;;;;;;7.73;2.10;;;9.40;99.90;;;;;;4831131;29;20236;-93
2024/03/25 11:47:09;;;;;;;10.33;1.97;;;9.30;99.90;;;;;;4832532;29;20196;-94
2024/03/25 11:49:39;;;;;;;10.10;2.10;;;9.20;99.90;;;;;;4832558;29;20193;-93
2024/03/25 11:52:08;;;;;;;5.90;1.40;;;9.10;99.90;;;;;;4830461;29;20185;-93
2024/03/25 11:54:34;;;;;;;6.47;1.40;;;8.90;99.90;;;;;;4832230;29;20189;-92
2024/03/25 11:57:05;;;;;;;5.93;1.40;;;8.90;99.90;;;;;;4840431;24;20242;-95
2024/03/25 11:59:30;;;;;;;7.00;1.63;;;8.80;99.90;;;;;;4850715;29;20252;-96
2024/03/25 12:02:40;;;;;;;5.97;1.60;;;8.70;99.90;;;;;;4854958;29;20185;-96
2024/03/25 12:05:09;;;;;;;4.50;1.20;;;8.70;99.90;;;;;;4839089;29;20220;-96
2024/03/25 12:07:35;;;;;;;9.07;2.33;;;8.80;99.90;;;;;;4836048;29;20182;-95
2024/03/25 12:12:53;;;;;;;11.23;1.60;;;8.90;99.90;;;;;;4834313;29;20177;-95
2024/03/25 12:15:20;;;;;;;12.60;2.00;;;8.90;99.90;;;;;;4828033;29;20197;-96
2024/03/25 12:17:46;;;;;;;5.37;1.63;;;8.90;99.90;;;;;;4836229;29;20213;-96
2024/03/25 12:20:13;;;;;;;5.77;1.50;;;9.00;99.90;;;;;;4839138;29;20205;-94
2024/03/25 12:22:40;;;;;;;7.68;1.70;;;8.90;99.90;;;;;;4835955;29;20202;-94
2024/03/25 12:25:07;;;;;;;6.70;1.60;;;8.90;99.90;;;;;;4831091;29;20264;-95
2024/03/25 12:27:37;;;;;;;5.77;1.33;;;8.90;99.90;;;;;;4847724;29;20181;-94
2024/03/25 12:30:06;;;;;;;8.53;1.60;;;8.70;99.90;;;;;;4831213;29;20185;-93
2024/03/25 12:32:48;;;;;;;7.93;1.80;;;8.70;99.90;;;;;;4833565;29;20185;-94
2024/03/25 12:35:16;;;;;;;4.47;1.53;;;8.70;99.90;;;;;;4846968;29;20189;-96
2024/03/25 12:37:43;;;;;;;8.20;1.57;;;8.80;99.90;;;;;;4845872;29;20212;-93
2024/03/25 12:40:11;;;;;;;7.13;1.67;;;8.90;99.90;;;;;;4852099;29;20231;-96
2024/03/25 12:42:41;;;;;;;9.77;1.77;;;9.00;99.90;;;;;;4852484;29;20186;-94
2024/03/25 12:45:07;;;;;;;7.18;1.75;;;9.10;99.90;;;;;;4831533;29;20253;-95
2024/03/25 12:47:34;;;;;;;4.25;1.20;;;9.10;99.90;;;;;;4828499;29;20209;-94
2024/03/25 12:49:59;;;;;;;7.75;1.95;;;9.20;99.90;;;;;;4849017;29;20181;-94
2024/03/25 12:52:27;;;;;;;6.15;1.52;;;9.30;99.90;;;;;;4832549;29;20698;-95
2024/03/25 12:54:53;;;;;;;5.68;1.38;;;9.30;99.90;;;;;;4830889;29;20173;-93
2024/03/25 12:57:24;;;;;;;6.93;1.55;;;9.50;99.90;;;;;;4831647;29;20245;-95
2024/03/25 12:59:49;;;;;;;3.58;1.08;;;9.60;99.90;;;;;;4831643;29;20213;-94
2024/03/25 13:02:32;;;;;;;6.75;1.30;;;9.50;99.90;;;;;;4830209;29;20257;-95
2024/03/25 13:04:57;;;;;;;5.10;1.10;;;9.40;99.90;;;;;;4830833;29;20185;-95
2024/03/25 13:07:23;;;;;;;5.43;1.10;;;9.30;99.90;;;;;;4830898;29;20190;-94